createdAt,value
2023-02-11T00:02:18.835Z,57.38
2023-02-11T00:05:07.765Z,52.33
2023-02-11T00:07:48.742Z,53.28
2023-02-11T00:10:35.764Z,61.50
2023-02-11T00:13:15.762Z,58.80
2023-02-11T00:16:02.755Z,56.10
2023-02-11T00:18:42.762Z,56.83
2023-02-11T00:21:32.754Z,53.42
2023-02-11T00:24:06.863Z,68.95
2023-02-11T00:26:53.770Z,79.57
2023-02-11T00:29:26.873Z,54.70
2023-02-11T00:32:15.746Z,62.45
2023-02-11T00:34:55.754Z,63.80
2023-02-11T00:37:42.828Z,58.75
2023-02-11T00:40:23.773Z,49.53
2023-02-11T00:43:17.756Z,52.22
2023-02-11T00:46:04.768Z,54.08
2023-02-11T00:48:37.847Z,45.75
2023-02-11T00:51:24.759Z,58.20
2023-02-11T00:54:04.761Z,63.28
2023-02-11T00:56:58.766Z,73.20
2023-02-11T00:59:45.773Z,51.88
2023-02-11T01:02:25.752Z,52.97
2023-02-11T01:05:19.816Z,51.13
2023-02-11T01:08:06.713Z,57.00
2023-02-11T01:10:39.866Z,61.63
2023-02-11T01:13:26.778Z,64.53
2023-02-11T01:16:00.948Z,57.92
2023-02-11T01:18:49.761Z,53.20
2023-02-11T01:21:22.861Z,48.72
2023-02-11T01:24:09.788Z,63.38
2023-02-11T01:26:49.774Z,60.00
2023-02-11T01:29:36.790Z,54.42
2023-02-11T01:32:16.806Z,63.83
2023-02-11T01:35:03.776Z,41.95
2023-02-11T01:37:46.777Z,42.35
2023-02-11T01:40:40.780Z,45.65
2023-02-11T01:43:34.813Z,47.05
2023-02-11T01:46:34.834Z,47.83
2023-02-11T01:49:24.843Z,50.17
2023-02-11T01:52:06.789Z,55.90
2023-02-11T01:55:16.840Z,51.33
2023-02-11T01:58:00.792Z,60.72
2023-02-11T02:00:48.773Z,58.97
2023-02-11T02:03:28.909Z,52.95
2023-02-11T02:06:34.777Z,46.25
2023-02-11T02:09:22.936Z,69.07
2023-02-11T02:12:09.779Z,44.58
2023-02-11T02:14:54.832Z,67.93
2023-02-11T02:17:52.786Z,40.78
2023-02-11T02:21:10.789Z,58.58
2023-02-11T02:24:22.790Z,47.38
2023-02-11T02:27:43.799Z,40.10
2023-02-11T02:31:01.836Z,32.15
2023-02-11T02:34:12.829Z,46.78
2023-02-11T02:37:22.819Z,44.33
2023-02-11T02:40:15.783Z,34.00
2023-02-11T02:42:50.923Z,31.95
2023-02-11T02:45:37.796Z,44.00
2023-02-11T02:48:10.961Z,42.35
2023-02-11T02:51:04.797Z,46.22
2023-02-11T02:54:03.817Z,37.13
2023-02-11T02:57:16.798Z,39.25
2023-02-11T03:00:21.412Z,44.20
2023-02-11T03:03:10.808Z,43.45
2023-02-11T03:06:08.918Z,48.45
2023-02-11T03:09:18.796Z,39.70
2023-02-11T03:11:51.944Z,45.88
2023-02-11T03:14:39.801Z,51.63
2023-02-11T03:17:14.892Z,51.20
2023-02-11T03:20:03.866Z,41.80
2023-02-11T03:22:41.976Z,41.72
2023-02-11T03:25:35.842Z,37.42
2023-02-11T03:28:08.918Z,40.63
2023-02-11T03:31:02.962Z,49.45
2023-02-11T03:33:50.822Z,50.72
2023-02-11T03:36:53.814Z,51.85
2023-02-11T03:39:33.904Z,60.10
2023-02-11T03:42:21.802Z,54.10
2023-02-11T03:45:04.992Z,51.15
2023-02-11T03:47:59.811Z,42.47
2023-02-11T03:50:43.800Z,50.00
2023-02-11T03:53:37.814Z,52.95
2023-02-11T03:56:36.811Z,47.40
2023-02-11T03:59:23.825Z,48.00
2023-02-11T04:01:59.636Z,62.47
2023-02-11T04:04:46.787Z,39.47
2023-02-11T04:07:26.830Z,50.13
2023-02-11T04:10:21.833Z,42.28
2023-02-11T04:13:08.830Z,41.42
2023-02-11T04:15:41.928Z,58.30
2023-02-11T04:18:28.823Z,55.47
2023-02-11T04:21:01.928Z,55.30
2023-02-11T04:23:48.818Z,57.35
2023-02-11T04:26:21.930Z,43.00
2023-02-11T04:29:08.806Z,67.32
2023-02-11T04:31:42.019Z,42.33
2023-02-11T04:34:28.858Z,50.33
2023-02-11T04:37:01.920Z,51.97
2023-02-11T04:39:48.857Z,53.10
2023-02-11T04:42:21.915Z,52.65
2023-02-11T04:45:08.845Z,56.53
2023-02-11T04:47:48.825Z,59.80
2023-02-11T04:50:36.811Z,62.25
2023-02-11T04:53:16.843Z,64.85
2023-02-11T04:56:10.879Z,64.15
2023-02-11T04:58:57.862Z,64.13
2023-02-11T05:01:37.850Z,73.05
2023-02-11T05:04:31.901Z,64.90
2023-02-11T05:07:18.885Z,68.03
2023-02-11T05:09:51.940Z,56.15
2023-02-11T05:12:38.846Z,62.70
2023-02-11T05:15:19.824Z,65.82
2023-02-11T05:18:13.842Z,54.08
2023-02-11T05:21:00.828Z,47.30
2023-02-11T05:23:34.356Z,50.78
2023-02-11T05:26:21.876Z,52.50
2023-02-11T05:28:54.909Z,61.83
2023-02-11T05:31:41.864Z,58.63
2023-02-11T05:34:14.908Z,65.05
2023-02-11T05:37:02.874Z,73.75
2023-02-11T05:39:35.955Z,56.28
2023-02-11T05:42:22.836Z,71.22
2023-02-11T05:44:55.951Z,57.80
2023-02-11T05:47:42.808Z,56.58
2023-02-11T05:50:22.838Z,73.78
2023-02-11T05:53:10.822Z,66.03
2023-02-11T05:55:45.000Z,53.42
2023-02-11T05:58:31.895Z,53.80
2023-02-11T06:01:05.019Z,47.20
2023-02-11T06:03:51.901Z,67.65
2023-02-11T06:06:25.185Z,75.85
2023-02-11T06:09:11.850Z,72.22
2023-02-11T06:11:51.900Z,74.90
2023-02-11T06:14:46.871Z,71.13
2023-02-11T06:17:40.858Z,83.10
2023-02-11T06:20:34.910Z,77.55
2023-02-11T06:23:30.454Z,67.85
2023-02-11T06:26:23.866Z,66.13
2023-02-11T06:28:56.986Z,77.70
2023-02-11T06:31:46.040Z,78.32
2023-02-11T06:34:18.936Z,76.45
2023-02-11T06:37:05.869Z,93.88
2023-02-11T06:39:38.953Z,77.47
2023-02-11T06:42:25.885Z,71.75
2023-02-11T06:45:05.894Z,68.03
2023-02-11T06:47:59.862Z,79.57
2023-02-11T06:50:46.891Z,84.25
2023-02-11T06:53:26.857Z,83.97
2023-02-11T06:56:19.888Z,86.65
2023-02-11T06:58:54.849Z,91.93
2023-02-11T07:01:41.923Z,92.68
2023-02-11T07:04:15.482Z,91.45
2023-02-11T07:07:01.853Z,90.65
2023-02-11T07:09:34.974Z,108.78
2023-02-11T07:12:21.899Z,99.95
2023-02-11T07:15:01.882Z,93.25
2023-02-11T07:17:48.864Z,78.20
2023-02-11T07:20:22.004Z,88.63
2023-02-11T07:23:08.865Z,94.75
2023-02-11T07:25:42.967Z,112.65
2023-02-11T07:28:29.907Z,90.18
2023-02-11T07:31:09.951Z,89.40
2023-02-11T07:34:05.879Z,108.47
2023-02-11T07:36:52.859Z,119.43
2023-02-11T07:39:27.613Z,112.68
2023-02-11T07:42:14.886Z,104.80
2023-02-11T07:44:54.884Z,118.72
2023-02-11T07:47:41.864Z,119.75
2023-02-11T07:50:22.908Z,136.70
2023-02-11T07:53:09.949Z,103.47
2023-02-11T07:55:43.030Z,109.22
2023-02-11T07:58:29.857Z,105.95
2023-02-11T08:01:08.051Z,118.65
2023-02-11T08:03:54.870Z,121.38
2023-02-11T08:06:29.996Z,109.88
2023-02-11T08:09:12.881Z,140.07
2023-02-11T08:11:52.971Z,164.45
2023-02-11T08:14:33.879Z,142.85
2023-02-11T08:17:13.897Z,152.15
2023-02-11T08:19:46.971Z,152.15
2023-02-11T08:22:33.864Z,143.00
2023-02-11T08:25:13.857Z,131.65
2023-02-11T08:28:07.928Z,129.85
2023-02-11T08:30:54.920Z,133.48
2023-02-11T08:33:28.025Z,110.55
2023-02-11T08:36:16.889Z,135.77
2023-02-11T08:38:51.074Z,130.50
2023-02-11T08:41:41.896Z,152.52
2023-02-11T08:44:15.036Z,145.43
2023-02-11T08:47:01.869Z,119.97
2023-02-11T08:49:41.901Z,135.93
2023-02-11T08:52:28.914Z,166.70
2023-02-11T08:55:08.890Z,131.77
2023-02-11T08:58:02.918Z,137.07
2023-02-11T09:00:56.884Z,141.15
2023-02-11T09:03:43.885Z,137.45
2023-02-11T09:06:19.005Z,184.63
2023-02-11T09:09:05.935Z,165.82
2023-02-11T09:11:43.082Z,168.23
2023-02-11T09:14:30.918Z,146.38
2023-02-11T09:17:04.036Z,132.18
2023-02-11T09:19:50.902Z,136.00
2023-02-11T09:22:23.987Z,136.70
2023-02-11T09:25:10.974Z,120.63
2023-02-11T09:27:44.043Z,120.82
2023-02-11T09:30:30.997Z,133.95
2023-02-11T09:33:04.142Z,133.30
2023-02-11T09:35:50.905Z,115.72
2023-02-11T09:38:24.003Z,171.20
2023-02-11T09:41:13.892Z,170.55
2023-02-11T09:43:55.016Z,128.20
2023-02-11T09:46:46.913Z,121.10
2023-02-11T09:49:36.917Z,111.78
2023-02-11T09:52:37.928Z,116.15
2023-02-11T09:55:31.903Z,109.03
2023-02-11T09:58:05.313Z,113.35
2023-02-11T10:01:09.966Z,92.13
2023-02-11T10:03:55.957Z,73.38
2023-02-11T10:06:50.908Z,65.75
2023-02-11T10:09:27.130Z,68.90
2023-02-11T10:12:19.949Z,73.88
2023-02-11T10:15:11.911Z,57.53
2023-02-11T10:18:27.935Z,60.60
2023-02-11T10:21:32.929Z,61.50
2023-02-11T10:24:28.922Z,59.65
2023-02-11T10:27:23.924Z,69.53
2023-02-11T10:30:03.114Z,60.97
2023-02-11T10:33:23.915Z,116.88
2023-02-11T10:36:04.959Z,80.78
2023-02-11T10:38:58.927Z,57.40
2023-02-11T10:41:59.906Z,52.53
2023-02-11T10:45:02.924Z,56.78
2023-02-11T10:47:57.916Z,60.25
2023-02-11T10:50:44.937Z,52.65
2023-02-11T10:53:27.283Z,52.47
2023-02-11T10:56:06.947Z,47.70
2023-02-11T10:59:00.135Z,52.72
2023-02-11T11:02:11.002Z,56.30
2023-02-11T11:04:51.951Z,56.55
2023-02-11T11:07:38.949Z,61.85
2023-02-11T11:10:52.215Z,51.95
2023-02-11T11:13:48.917Z,44.15
2023-02-11T11:16:38.949Z,53.00
2023-02-11T11:19:21.930Z,51.80
2023-02-11T11:22:15.964Z,45.80
2023-02-11T11:25:03.936Z,50.20
2023-02-11T11:27:37.828Z,50.60
2023-02-11T11:30:26.025Z,49.55
2023-02-11T11:32:59.057Z,55.63
2023-02-11T11:35:45.964Z,47.90
2023-02-11T11:38:28.927Z,66.35
2023-02-11T11:41:36.956Z,48.00
2023-02-11T11:44:41.992Z,48.20
2023-02-11T11:47:35.989Z,61.30
2023-02-11T11:50:27.781Z,49.17
2023-02-11T11:53:52.953Z,47.95
2023-02-11T11:56:39.071Z,50.05
2023-02-11T11:59:22.955Z,41.97
2023-02-11T12:02:42.071Z,53.45
2023-02-11T12:05:54.931Z,46.78
2023-02-11T12:08:47.077Z,46.58
2023-02-11T12:11:42.951Z,48.47
2023-02-11T12:14:30.985Z,48.63
2023-02-11T12:17:42.950Z,45.13
2023-02-11T12:20:44.962Z,48.03
2023-02-11T12:24:01.953Z,48.17
2023-02-11T12:26:55.970Z,47.33
2023-02-11T12:29:44.051Z,53.88
2023-02-11T12:32:50.942Z,48.45
2023-02-11T12:36:09.054Z,46.28
2023-02-11T12:39:13.963Z,59.97
2023-02-11T12:42:29.967Z,54.58
2023-02-11T12:45:28.026Z,49.95
2023-02-11T12:48:48.961Z,52.75
2023-02-11T12:52:07.016Z,51.03
2023-02-11T12:55:07.015Z,57.88
2023-02-11T12:57:44.108Z,53.92
2023-02-11T13:00:37.992Z,50.15
2023-02-11T13:03:25.985Z,48.30
2023-02-11T13:06:27.980Z,52.58
2023-02-11T13:09:24.996Z,47.45
2023-02-11T13:12:22.034Z,42.97
2023-02-11T13:15:14.002Z,53.58
2023-02-11T13:18:12.035Z,47.58
2023-02-11T13:21:43.970Z,48.72
2023-02-11T13:24:45.981Z,77.60
2023-02-11T13:27:25.995Z,65.43
2023-02-11T13:30:40.011Z,58.58
2023-02-11T13:33:38.999Z,54.28
2023-02-11T13:36:15.112Z,65.00
2023-02-11T13:39:08.002Z,66.80
2023-02-11T13:41:51.585Z,67.72
2023-02-11T13:44:47.988Z,68.60
2023-02-11T13:47:43.997Z,65.32
2023-02-11T13:50:39.985Z,64.47
2023-02-11T13:53:26.998Z,67.97
2023-02-11T13:56:13.134Z,61.33
2023-02-11T13:59:02.032Z,69.25
2023-02-11T14:02:14.440Z,71.00
2023-02-11T14:05:43.998Z,61.85
2023-02-11T14:08:42.020Z,88.35
2023-02-11T14:11:48.022Z,81.93
2023-02-11T14:14:40.055Z,86.38
2023-02-11T14:17:13.159Z,95.82
2023-02-11T14:19:59.999Z,117.45
2023-02-11T14:22:37.085Z,75.05
2023-02-11T14:25:33.054Z,66.75
2023-02-11T14:28:41.057Z,60.63
2023-02-11T14:31:41.133Z,63.92
2023-02-11T14:34:34.010Z,67.07
2023-02-11T14:37:21.124Z,66.90
2023-02-11T14:40:14.008Z,65.03
2023-02-11T14:42:48.108Z,65.82
2023-02-11T14:45:43.014Z,67.63
2023-02-11T14:48:46.009Z,76.82
2023-02-11T14:51:40.037Z,65.88
2023-02-11T14:54:40.086Z,68.05
2023-02-11T14:57:35.017Z,79.03
2023-02-11T15:00:35.020Z,83.90
2023-02-11T15:03:33.028Z,76.20
2023-02-11T15:06:12.213Z,89.93
2023-02-11T15:09:09.000Z,90.65
2023-02-11T15:11:49.159Z,85.00
2023-02-11T15:14:47.007Z,104.28
2023-02-11T15:17:32.095Z,103.88
2023-02-11T15:20:33.014Z,112.72
2023-02-11T15:23:18.022Z,82.95
2023-02-11T15:26:12.027Z,94.47
2023-02-11T15:28:59.358Z,155.13
2023-02-11T15:31:35.286Z,167.18
2023-02-11T15:34:22.027Z,130.00
2023-02-11T15:36:55.175Z,113.95
2023-02-11T15:39:50.018Z,94.53
2023-02-11T15:42:52.578Z,90.40
2023-02-11T15:45:51.027Z,82.03
2023-02-11T15:49:06.068Z,102.28
2023-02-11T15:51:54.039Z,128.98
2023-02-11T15:54:32.602Z,113.80
2023-02-11T15:57:19.034Z,90.20
2023-02-11T16:00:02.025Z,121.63
2023-02-11T16:02:53.048Z,85.15
2023-02-11T16:05:32.230Z,74.40
2023-02-11T16:08:32.075Z,74.72
2023-02-11T16:11:09.212Z,79.75
2023-02-11T16:13:56.031Z,79.15
2023-02-11T16:16:36.297Z,77.18
2023-02-11T16:19:27.048Z,90.40
2023-02-11T16:22:10.089Z,91.00
2023-02-11T16:25:06.062Z,118.13
2023-02-11T16:27:58.096Z,117.72
2023-02-11T16:30:38.182Z,92.63
2023-02-11T16:33:25.034Z,88.00
2023-02-11T16:36:02.108Z,101.43
2023-02-11T16:38:49.051Z,88.28
2023-02-11T16:41:22.180Z,75.35
2023-02-11T16:44:09.051Z,96.63
2023-02-11T16:46:43.170Z,99.63
2023-02-11T16:49:36.097Z,89.43
2023-02-11T16:52:14.154Z,91.97
2023-02-11T16:55:01.472Z,91.53
2023-02-11T16:57:35.177Z,86.65
2023-02-11T17:00:24.064Z,98.85
2023-02-11T17:03:04.046Z,89.47
2023-02-11T17:06:00.368Z,94.25
2023-02-11T17:08:54.056Z,114.55
2023-02-11T17:11:41.041Z,97.65
2023-02-11T17:14:14.211Z,123.72
2023-02-11T17:17:01.062Z,144.68
2023-02-11T17:19:41.085Z,105.40
2023-02-11T17:22:35.054Z,130.35
2023-02-11T17:25:22.052Z,122.28
2023-02-11T17:28:02.112Z,110.05
2023-02-11T17:30:50.091Z,113.45
2023-02-11T17:33:23.183Z,110.90
2023-02-11T17:36:15.086Z,107.40
2023-02-11T17:38:55.076Z,107.55
2023-02-11T17:41:44.082Z,152.15
2023-02-11T17:44:25.065Z,113.53
2023-02-11T17:47:19.058Z,130.55
2023-02-11T17:50:13.059Z,168.82
2023-02-11T17:53:00.103Z,142.52
2023-02-11T17:55:33.193Z,120.55
2023-02-11T17:58:20.131Z,93.35
2023-02-11T18:00:53.306Z,93.70
2023-02-11T18:03:40.060Z,87.22
2023-02-11T18:06:14.218Z,96.90
2023-02-11T18:09:04.213Z,110.47
2023-02-11T18:11:47.101Z,113.03
2023-02-11T18:14:34.095Z,98.95
2023-02-11T18:17:14.063Z,100.60
2023-02-11T18:20:04.080Z,97.75
2023-02-11T18:22:40.174Z,100.80
2023-02-11T18:25:27.095Z,96.47
2023-02-11T18:28:07.132Z,123.40
2023-02-11T18:30:54.104Z,129.98
2023-02-11T18:33:28.237Z,133.43
2023-02-11T18:36:21.082Z,131.85
2023-02-11T18:39:01.080Z,130.77
2023-02-11T18:41:50.095Z,127.63
2023-02-11T18:44:24.754Z,118.97
2023-02-11T18:47:11.092Z,126.05
2023-02-11T18:49:44.192Z,144.05
2023-02-11T18:52:31.119Z,124.75
2023-02-11T18:55:04.270Z,122.00
2023-02-11T18:57:51.144Z,128.48
2023-02-11T19:00:28.266Z,156.27
2023-02-11T19:03:15.092Z,159.27
2023-02-11T19:06:01.089Z,143.60
2023-02-11T19:08:57.490Z,146.90
2023-02-11T19:11:54.155Z,144.65
2023-02-11T19:14:42.102Z,150.68
2023-02-11T19:17:15.296Z,150.50
2023-02-11T19:20:02.237Z,137.50
2023-02-11T19:22:35.184Z,142.80
2023-02-11T19:25:22.113Z,131.55
2023-02-11T19:27:55.194Z,144.02
2023-02-11T19:30:43.203Z,148.40
2023-02-11T19:33:17.271Z,127.70
2023-02-11T19:36:10.366Z,122.35
2023-02-11T19:38:45.260Z,117.82
2023-02-11T19:41:32.093Z,106.28
2023-02-11T19:44:05.220Z,108.93
2023-02-11T19:47:00.242Z,123.20
2023-02-11T19:49:47.138Z,133.05
2023-02-11T19:52:20.548Z,136.40
2023-02-11T19:55:07.202Z,144.73
2023-02-11T19:57:47.310Z,156.65
2023-02-11T20:01:01.293Z,150.93
2023-02-11T20:03:49.143Z,155.93
2023-02-11T20:06:26.283Z,162.60
2023-02-11T20:09:16.157Z,154.45
2023-02-11T20:11:57.173Z,155.18
2023-02-11T20:14:51.166Z,133.95
2023-02-11T20:17:38.122Z,148.88
2023-02-11T20:20:12.939Z,182.90
2023-02-11T20:23:00.127Z,156.40
2023-02-11T20:25:40.093Z,152.27
2023-02-11T20:28:27.129Z,167.43
2023-02-11T20:31:04.308Z,171.98
2023-02-11T20:33:53.149Z,150.38
2023-02-11T20:36:38.132Z,152.88
2023-02-11T20:39:28.137Z,159.00
2023-02-11T20:42:08.137Z,169.63
2023-02-11T20:45:02.133Z,175.90
2023-02-11T20:47:56.108Z,174.00
2023-02-11T20:50:43.174Z,138.05
2023-02-11T20:53:16.258Z,203.95
2023-02-11T20:56:03.196Z,198.85
2023-02-11T20:58:36.247Z,168.77
2023-02-11T21:01:33.202Z,146.95
2023-02-11T21:04:19.142Z,156.50
2023-02-11T21:07:08.129Z,154.15
2023-02-11T21:09:41.214Z,154.82
2023-02-11T21:12:28.109Z,149.32
2023-02-11T21:15:04.959Z,152.40
2023-02-11T21:17:52.153Z,168.80
2023-02-11T21:20:32.196Z,172.57
2023-02-11T21:23:19.138Z,183.23
2023-02-11T21:25:59.176Z,142.23
2023-02-11T21:28:46.232Z,150.52
2023-02-11T21:31:32.464Z,131.48
2023-02-11T21:34:19.143Z,123.40
2023-02-11T21:36:52.422Z,122.40
2023-02-11T21:39:39.119Z,122.45
2023-02-11T21:42:19.141Z,139.77
2023-02-11T21:45:13.199Z,162.65
2023-02-11T21:48:07.149Z,131.27
2023-02-11T21:51:01.159Z,154.23
2023-02-11T21:53:55.193Z,186.57
2023-02-11T21:56:43.184Z,212.75
2023-02-11T21:59:18.272Z,236.38
2023-02-11T22:02:05.238Z,215.27
2023-02-11T22:04:38.329Z,190.57
2023-02-11T22:07:27.157Z,186.43
2023-02-11T22:10:00.280Z,164.35
2023-02-11T22:12:47.166Z,161.45
2023-02-11T22:15:27.221Z,138.02
2023-02-11T22:18:21.125Z,154.25
2023-02-11T22:21:11.203Z,140.82
2023-02-11T22:23:45.277Z,113.07
2023-02-11T22:26:34.164Z,68.13
2023-02-11T22:29:07.244Z,97.88
2023-02-11T22:31:54.204Z,84.82
2023-02-11T22:34:27.281Z,35.45
2023-02-11T22:37:09.136Z,34.83
2023-02-11T22:39:56.151Z,33.15
2023-02-11T22:42:50.147Z,33.95
2023-02-11T22:45:44.249Z,32.92
2023-02-11T22:48:24.277Z,31.92
2023-02-11T22:51:04.135Z,32.67
2023-02-11T22:53:44.147Z,32.97
2023-02-11T22:56:39.217Z,35.58
2023-02-11T22:59:26.177Z,35.53
2023-02-11T23:01:59.407Z,34.80
2023-02-11T23:04:48.359Z,35.90
2023-02-11T23:07:30.181Z,36.80
2023-02-11T23:10:17.157Z,35.17
2023-02-11T23:12:57.169Z,35.33
2023-02-11T23:15:56.535Z,36.03
2023-02-11T23:18:51.162Z,36.17
2023-02-11T23:21:47.160Z,32.88
2023-02-11T23:24:34.180Z,33.65
2023-02-11T23:27:07.283Z,34.30
2023-02-11T23:29:54.151Z,33.88
2023-02-11T23:32:27.352Z,32.47
2023-02-11T23:35:14.158Z,34.65
2023-02-11T23:37:47.288Z,32.50
2023-02-11T23:40:34.160Z,31.00
2023-02-11T23:43:07.251Z,33.10
2023-02-11T23:46:01.230Z,33.72
2023-02-11T23:48:55.206Z,33.22
2023-02-11T23:51:42.189Z,32.75
2023-02-11T23:54:26.184Z,31.92
2023-02-11T23:57:20.191Z,31.83
